sensor_id;sensor_type;location;lat;lon;timestamp;P1;durP1;ratioP1;P2;durP2;ratioP2
1054;SDS011;516;51.482;7.120;2023-02-26T00:04:10;9.07;;;8.00;;
1054;SDS011;516;51.482;7.120;2023-02-26T00:09:57;8.40;;;7.80;;
1054;SDS011;516;51.482;7.120;2023-02-26T00:15:47;8.17;;;7.57;;
1054;SDS011;516;51.482;7.120;2023-02-26T00:21:27;8.70;;;7.80;;
1054;SDS011;516;51.482;7.120;2023-02-26T00:27:15;8.70;;;8.00;;
1054;SDS011;516;51.482;7.120;2023-02-26T00:33:03;7.80;;;7.00;;
1054;SDS011;516;51.482;7.120;2023-02-26T00:39:00;10.67;;;8.73;;
1054;SDS011;516;51.482;7.120;2023-02-26T00:45:28;7.60;;;7.00;;
1054;SDS011;516;51.482;7.120;2023-02-26T00:51:25;8.43;;;7.77;;
1054;SDS011;516;51.482;7.120;2023-02-26T00:57:41;8.33;;;7.53;;
1054;SDS011;516;51.482;7.120;2023-02-26T01:03:30;8.03;;;7.53;;
1054;SDS011;516;51.482;7.120;2023-02-26T01:15:19;8.20;;;7.70;;
1054;SDS011;516;51.482;7.120;2023-02-26T01:24:35;7.93;;;7.30;;
1054;SDS011;516;51.482;7.120;2023-02-26T01:30:23;8.27;;;7.60;;
1054;SDS011;516;51.482;7.120;2023-02-26T01:36:16;8.00;;;7.40;;
1054;SDS011;516;51.482;7.120;2023-02-26T01:42:29;7.80;;;7.30;;
1054;SDS011;516;51.482;7.120;2023-02-26T01:48:24;7.30;;;6.90;;
1054;SDS011;516;51.482;7.120;2023-02-26T01:54:54;7.83;;;7.30;;
1054;SDS011;516;51.482;7.120;2023-02-26T02:00:42;8.17;;;7.67;;
1054;SDS011;516;51.482;7.120;2023-02-26T02:06:29;8.50;;;8.00;;
1054;SDS011;516;51.482;7.120;2023-02-26T02:40:54;7.83;;;7.23;;
1054;SDS011;516;51.482;7.120;2023-02-26T02:47:07;8.37;;;7.77;;
1054;SDS011;516;51.482;7.120;2023-02-26T02:52:57;8.73;;;7.70;;
1054;SDS011;516;51.482;7.120;2023-02-26T02:59:15;7.43;;;7.03;;
1054;SDS011;516;51.482;7.120;2023-02-26T03:05:45;8.20;;;7.37;;
1054;SDS011;516;51.482;7.120;2023-02-26T03:11:34;8.07;;;7.57;;
1054;SDS011;516;51.482;7.120;2023-02-26T03:17:30;7.60;;;7.10;;
1054;SDS011;516;51.482;7.120;2023-02-26T03:23:32;7.80;;;7.40;;
1054;SDS011;516;51.482;7.120;2023-02-26T03:35:46;8.83;;;7.90;;
1054;SDS011;516;51.482;7.120;2023-02-26T03:47:34;7.10;;;6.30;;
1054;SDS011;516;51.482;7.120;2023-02-26T03:53:27;8.00;;;7.50;;
1054;SDS011;516;51.482;7.120;2023-02-26T03:59:18;7.20;;;6.50;;
1054;SDS011;516;51.482;7.120;2023-02-26T04:05:07;7.70;;;6.60;;
1054;SDS011;516;51.482;7.120;2023-02-26T04:11:36;7.00;;;6.17;;
1054;SDS011;516;51.482;7.120;2023-02-26T04:17:25;6.47;;;5.97;;
1054;SDS011;516;51.482;7.120;2023-02-26T04:23:13;7.53;;;6.87;;
1054;SDS011;516;51.482;7.120;2023-02-26T04:29:01;7.27;;;6.67;;
1054;SDS011;516;51.482;7.120;2023-02-26T04:38:07;8.37;;;6.10;;
1054;SDS011;516;51.482;7.120;2023-02-26T04:43:55;6.50;;;6.20;;
1054;SDS011;516;51.482;7.120;2023-02-26T04:49:42;7.10;;;6.13;;
1054;SDS011;516;51.482;7.120;2023-02-26T04:55:30;8.73;;;6.77;;
1054;SDS011;516;51.482;7.120;2023-02-26T05:01:18;7.97;;;7.30;;
1054;SDS011;516;51.482;7.120;2023-02-26T05:07:06;6.50;;;6.00;;
1054;SDS011;516;51.482;7.120;2023-02-26T05:12:53;6.90;;;6.50;;
1054;SDS011;516;51.482;7.120;2023-02-26T05:18:41;7.00;;;6.40;;
1054;SDS011;516;51.482;7.120;2023-02-26T05:24:28;6.27;;;5.93;;
1054;SDS011;516;51.482;7.120;2023-02-26T05:30:15;7.43;;;6.83;;
1054;SDS011;516;51.482;7.120;2023-02-26T05:36:03;9.10;;;8.20;;
1054;SDS011;516;51.482;7.120;2023-02-26T05:41:52;7.93;;;6.53;;
1054;SDS011;516;51.482;7.120;2023-02-26T05:47:41;6.60;;;6.20;;
1054;SDS011;516;51.482;7.120;2023-02-26T05:53:30;6.10;;;5.80;;
1054;SDS011;516;51.482;7.120;2023-02-26T05:59:17;8.93;;;7.00;;
1054;SDS011;516;51.482;7.120;2023-02-26T06:05:05;7.33;;;6.83;;
1054;SDS011;516;51.482;7.120;2023-02-26T06:10:53;7.83;;;7.07;;
1054;SDS011;516;51.482;7.120;2023-02-26T06:16:41;10.20;;;7.27;;
1054;SDS011;516;51.482;7.120;2023-02-26T06:22:29;9.50;;;6.50;;
1054;SDS011;516;51.482;7.120;2023-02-26T06:38:04;7.47;;;6.87;;
1054;SDS011;516;51.482;7.120;2023-02-26T06:43:52;7.80;;;6.47;;
1054;SDS011;516;51.482;7.120;2023-02-26T06:49:40;6.37;;;5.87;;
1054;SDS011;516;51.482;7.120;2023-02-26T06:55:28;7.40;;;6.17;;
1054;SDS011;516;51.482;7.120;2023-02-26T07:01:15;7.10;;;6.50;;
1054;SDS011;516;51.482;7.120;2023-02-26T07:07:03;8.17;;;6.47;;
1054;SDS011;516;51.482;7.120;2023-02-26T07:12:51;8.33;;;6.43;;
1054;SDS011;516;51.482;7.120;2023-02-26T07:18:39;8.73;;;6.43;;
1054;SDS011;516;51.482;7.120;2023-02-26T07:24:26;7.27;;;6.53;;
1054;SDS011;516;51.482;7.120;2023-02-26T07:30:15;8.00;;;7.50;;
1054;SDS011;516;51.482;7.120;2023-02-26T07:36:02;8.20;;;7.80;;
1054;SDS011;516;51.482;7.120;2023-02-26T07:41:51;8.80;;;8.40;;
1054;SDS011;516;51.482;7.120;2023-02-26T07:47:39;9.63;;;8.70;;
1054;SDS011;516;51.482;7.120;2023-02-26T07:53:27;11.53;;;10.30;;
1054;SDS011;516;51.482;7.120;2023-02-26T07:59:14;10.10;;;9.40;;
1054;SDS011;516;51.482;7.120;2023-02-26T08:05:02;11.33;;;10.60;;
1054;SDS011;516;51.482;7.120;2023-02-26T08:10:51;11.00;;;10.37;;
1054;SDS011;516;51.482;7.120;2023-02-26T08:16:39;10.10;;;9.60;;
1054;SDS011;516;51.482;7.120;2023-02-26T08:22:26;10.83;;;10.27;;
1054;SDS011;516;51.482;7.120;2023-02-26T08:38:08;11.10;;;10.60;;
1054;SDS011;516;51.482;7.120;2023-02-26T08:43:56;11.00;;;10.40;;
1054;SDS011;516;51.482;7.120;2023-02-26T08:49:47;11.40;;;10.80;;
1054;SDS011;516;51.482;7.120;2023-02-26T08:55:35;10.33;;;9.83;;
1054;SDS011;516;51.482;7.120;2023-02-26T09:01:22;10.30;;;9.63;;
1054;SDS011;516;51.482;7.120;2023-02-26T09:07:10;10.77;;;10.17;;
1054;SDS011;516;51.482;7.120;2023-02-26T09:12:58;10.03;;;9.53;;
1054;SDS011;516;51.482;7.120;2023-02-26T09:18:45;9.57;;;9.03;;
1054;SDS011;516;51.482;7.120;2023-02-26T09:24:33;9.80;;;9.40;;
1054;SDS011;516;51.482;7.120;2023-02-26T09:30:21;9.70;;;9.10;;
1054;SDS011;516;51.482;7.120;2023-02-26T09:36:09;10.30;;;9.70;;
1054;SDS011;516;51.482;7.120;2023-02-26T09:42:20;9.83;;;9.43;;
1054;SDS011;516;51.482;7.120;2023-02-26T09:48:44;11.17;;;10.57;;
1054;SDS011;516;51.482;7.120;2023-02-26T09:54:35;11.07;;;10.50;;
1054;SDS011;516;51.482;7.120;2023-02-26T10:00:57;10.73;;;9.93;;
1054;SDS011;516;51.482;7.120;2023-02-26T10:19:19;11.07;;;10.40;;
1054;SDS011;516;51.482;7.120;2023-02-26T10:25:17;9.80;;;9.30;;
1054;SDS011;516;51.482;7.120;2023-02-26T10:35:05;10.17;;;9.70;;
1054;SDS011;516;51.482;7.120;2023-02-26T10:41:23;10.50;;;10.10;;
1054;SDS011;516;51.482;7.120;2023-02-26T10:53:53;10.87;;;10.30;;
1054;SDS011;516;51.482;7.120;2023-02-26T11:03:15;9.63;;;9.23;;
1054;SDS011;516;51.482;7.120;2023-02-26T11:09:13;8.90;;;8.50;;
1054;SDS011;516;51.482;7.120;2023-02-26T11:15:41;11.03;;;10.40;;
1054;SDS011;516;51.482;7.120;2023-02-26T11:21:36;11.57;;;10.97;;
1054;SDS011;516;51.482;7.120;2023-02-26T11:27:29;10.37;;;9.63;;
1054;SDS011;516;51.482;7.120;2023-02-26T11:33:22;10.33;;;9.93;;
1054;SDS011;516;51.482;7.120;2023-02-26T11:39:38;10.90;;;10.50;;
1054;SDS011;516;51.482;7.120;2023-02-26T11:45:25;11.03;;;10.63;;
1054;SDS011;516;51.482;7.120;2023-02-26T11:51:20;11.50;;;10.80;;
1054;SDS011;516;51.482;7.120;2023-02-26T11:57:16;10.03;;;9.60;;
1054;SDS011;516;51.482;7.120;2023-02-26T12:03:31;10.07;;;9.67;;
1054;SDS011;516;51.482;7.120;2023-02-26T12:09:20;10.40;;;9.90;;
1054;SDS011;516;51.482;7.120;2023-02-26T12:43:59;10.60;;;10.10;;
1054;SDS011;516;51.482;7.120;2023-02-26T13:03:12;10.73;;;10.13;;
1054;SDS011;516;51.482;7.120;2023-02-26T13:10:01;11.43;;;10.80;;
1054;SDS011;516;51.482;7.120;2023-02-26T13:22:53;9.83;;;9.43;;
1054;SDS011;516;51.482;7.120;2023-02-26T13:40:56;11.40;;;10.93;;
1054;SDS011;516;51.482;7.120;2023-02-26T13:53:52;11.37;;;10.87;;
1054;SDS011;516;51.482;7.120;2023-02-26T14:12:00;11.70;;;11.00;;
1054;SDS011;516;51.482;7.120;2023-02-26T14:17:50;11.60;;;11.10;;
1054;SDS011;516;51.482;7.120;2023-02-26T14:35:47;11.10;;;10.60;;
1054;SDS011;516;51.482;7.120;2023-02-26T14:41:38;11.37;;;10.87;;
1054;SDS011;516;51.482;7.120;2023-02-26T14:47:27;11.27;;;10.70;;
1054;SDS011;516;51.482;7.120;2023-02-26T15:31:17;11.50;;;11.00;;
1054;SDS011;516;51.482;7.120;2023-02-26T15:40:29;11.03;;;10.53;;
1054;SDS011;516;51.482;7.120;2023-02-26T15:46:20;11.07;;;10.57;;
1054;SDS011;516;51.482;7.120;2023-02-26T15:52:15;12.13;;;11.40;;
1054;SDS011;516;51.482;7.120;2023-02-26T15:58:05;12.80;;;11.90;;
1054;SDS011;516;51.482;7.120;2023-02-26T16:03:58;12.70;;;11.70;;
1054;SDS011;516;51.482;7.120;2023-02-26T16:09:48;12.40;;;11.70;;
1054;SDS011;516;51.482;7.120;2023-02-26T16:15:38;12.13;;;11.37;;
1054;SDS011;516;51.482;7.120;2023-02-26T16:21:32;11.57;;;10.93;;
1054;SDS011;516;51.482;7.120;2023-02-26T16:27:23;12.53;;;11.83;;
1054;SDS011;516;51.482;7.120;2023-02-26T16:33:16;12.03;;;11.53;;
1054;SDS011;516;51.482;7.120;2023-02-26T16:36:02;12.87;;;11.97;;
1054;SDS011;516;51.482;7.120;2023-02-26T16:57:17;12.83;;;12.30;;
1054;SDS011;516;51.482;7.120;2023-02-26T17:03:19;13.77;;;13.07;;
1054;SDS011;516;51.482;7.120;2023-02-26T17:09:23;15.87;;;14.87;;
1054;SDS011;516;51.482;7.120;2023-02-26T17:15:49;13.20;;;12.37;;
1054;SDS011;516;51.482;7.120;2023-02-26T17:21:45;12.53;;;11.93;;
1054;SDS011;516;51.482;7.120;2023-02-26T17:27:35;13.20;;;12.47;;
1054;SDS011;516;51.482;7.120;2023-02-26T17:33:23;13.97;;;12.97;;
1054;SDS011;516;51.482;7.120;2023-02-26T17:35:57;13.27;;;12.60;;
1054;SDS011;516;51.482;7.120;2023-02-26T17:38:24;13.70;;;12.97;;
1054;SDS011;516;51.482;7.120;2023-02-26T17:44:13;14.10;;;13.30;;
1054;SDS011;516;51.482;7.120;2023-02-26T17:50:05;14.50;;;13.50;;
1054;SDS011;516;51.482;7.120;2023-02-26T17:56:32;14.90;;;13.93;;
1054;SDS011;516;51.482;7.120;2023-02-26T18:02:22;13.87;;;12.97;;
1054;SDS011;516;51.482;7.120;2023-02-26T18:14:45;12.97;;;12.27;;
1054;SDS011;516;51.482;7.120;2023-02-26T18:20:33;13.00;;;12.17;;
1054;SDS011;516;51.482;7.120;2023-02-26T18:26:21;13.90;;;12.90;;
1054;SDS011;516;51.482;7.120;2023-02-26T18:32:12;13.50;;;12.70;;
1054;SDS011;516;51.482;7.120;2023-02-26T18:38:00;12.57;;;11.87;;
1054;SDS011;516;51.482;7.120;2023-02-26T18:43:48;13.97;;;13.07;;
1054;SDS011;516;51.482;7.120;2023-02-26T18:49:36;14.50;;;13.40;;
1054;SDS011;516;51.482;7.120;2023-02-26T18:55:24;13.20;;;12.50;;
1054;SDS011;516;51.482;7.120;2023-02-26T19:01:12;13.50;;;12.77;;
1054;SDS011;516;51.482;7.120;2023-02-26T19:07:00;12.47;;;11.77;;
1054;SDS011;516;51.482;7.120;2023-02-26T19:12:48;14.20;;;13.20;;
1054;SDS011;516;51.482;7.120;2023-02-26T19:18:36;13.53;;;12.73;;
1054;SDS011;516;51.482;7.120;2023-02-26T19:24:24;13.90;;;13.00;;
1054;SDS011;516;51.482;7.120;2023-02-26T19:30:12;14.60;;;13.60;;
1054;SDS011;516;51.482;7.120;2023-02-26T19:36:00;15.40;;;14.53;;
1054;SDS011;516;51.482;7.120;2023-02-26T19:41:48;15.67;;;14.50;;
1054;SDS011;516;51.482;7.120;2023-02-26T19:47:36;13.90;;;13.10;;
1054;SDS011;516;51.482;7.120;2023-02-26T19:53:24;13.20;;;12.57;;
1054;SDS011;516;51.482;7.120;2023-02-26T19:59:12;13.67;;;13.00;;
1054;SDS011;516;51.482;7.120;2023-02-26T20:04:59;14.37;;;13.60;;
1054;SDS011;516;51.482;7.120;2023-02-26T20:10:51;13.67;;;12.83;;
1054;SDS011;516;51.482;7.120;2023-02-26T20:16:40;12.70;;;12.10;;
1054;SDS011;516;51.482;7.120;2023-02-26T20:22:27;14.00;;;13.17;;
1054;SDS011;516;51.482;7.120;2023-02-26T20:28:18;14.53;;;13.73;;
1054;SDS011;516;51.482;7.120;2023-02-26T20:34:06;14.17;;;13.47;;
1054;SDS011;516;51.482;7.120;2023-02-26T20:39:53;14.00;;;13.23;;
1054;SDS011;516;51.482;7.120;2023-02-26T20:45:41;13.63;;;12.83;;
1054;SDS011;516;51.482;7.120;2023-02-26T20:51:29;14.90;;;13.90;;
1054;SDS011;516;51.482;7.120;2023-02-26T20:57:17;14.37;;;13.53;;
1054;SDS011;516;51.482;7.120;2023-02-26T21:03:05;14.67;;;13.70;;
1054;SDS011;516;51.482;7.120;2023-02-26T21:08:53;14.53;;;13.37;;
1054;SDS011;516;51.482;7.120;2023-02-26T21:14:41;15.87;;;14.60;;
1054;SDS011;516;51.482;7.120;2023-02-26T21:20:29;14.47;;;13.53;;
1054;SDS011;516;51.482;7.120;2023-02-26T21:26:18;14.40;;;13.63;;
1054;SDS011;516;51.482;7.120;2023-02-26T21:32:08;14.60;;;13.60;;
1054;SDS011;516;51.482;7.120;2023-02-26T21:41:18;13.77;;;12.97;;
1054;SDS011;516;51.482;7.120;2023-02-26T21:47:07;14.00;;;12.90;;
1054;SDS011;516;51.482;7.120;2023-02-26T21:52:55;14.03;;;12.83;;
1054;SDS011;516;51.482;7.120;2023-02-26T21:58:43;14.63;;;13.40;;
1054;SDS011;516;51.482;7.120;2023-02-26T22:04:31;14.10;;;13.10;;
1054;SDS011;516;51.482;7.120;2023-02-26T22:10:19;13.87;;;12.97;;
1054;SDS011;516;51.482;7.120;2023-02-26T22:16:07;13.57;;;12.67;;
1054;SDS011;516;51.482;7.120;2023-02-26T22:21:55;14.63;;;13.37;;
1054;SDS011;516;51.482;7.120;2023-02-26T22:27:44;13.30;;;12.30;;
1054;SDS011;516;51.482;7.120;2023-02-26T22:33:32;14.53;;;12.13;;
1054;SDS011;516;51.482;7.120;2023-02-26T22:39:09;13.50;;;12.40;;
1054;SDS011;516;51.482;7.120;2023-02-26T22:44:38;14.77;;;13.43;;
1054;SDS011;516;51.482;7.120;2023-02-26T22:50:26;12.53;;;11.53;;
1054;SDS011;516;51.482;7.120;2023-02-26T22:56:13;12.77;;;11.67;;
1054;SDS011;516;51.482;7.120;2023-02-26T23:02:01;13.27;;;12.30;;
1054;SDS011;516;51.482;7.120;2023-02-26T23:07:49;12.50;;;11.50;;
1054;SDS011;516;51.482;7.120;2023-02-26T23:13:36;13.47;;;12.17;;
1054;SDS011;516;51.482;7.120;2023-02-26T23:19:25;12.77;;;11.70;;
1054;SDS011;516;51.482;7.120;2023-02-26T23:25:12;21.63;;;12.40;;
1054;SDS011;516;51.482;7.120;2023-02-26T23:31:00;11.40;;;10.30;;
1054;SDS011;516;51.482;7.120;2023-02-26T23:36:48;13.13;;;11.93;;
1054;SDS011;516;51.482;7.120;2023-02-26T23:42:35;12.40;;;11.33;;
1054;SDS011;516;51.482;7.120;2023-02-26T23:48:23;12.80;;;11.70;;
1054;SDS011;516;51.482;7.120;2023-02-26T23:54:13;12.30;;;11.23;;
